createdAt,value
2023-05-21T00:01:42.940Z,99.90
2023-05-21T00:04:11.824Z,99.90
2023-05-21T00:06:38.816Z,99.90
2023-05-21T00:09:06.816Z,99.90
2023-05-21T00:11:33.869Z,99.90
2023-05-21T00:14:01.180Z,99.90
2023-05-21T00:16:28.137Z,99.90
2023-05-21T00:18:55.336Z,99.90
2023-05-21T00:21:22.792Z,99.90
2023-05-21T00:23:50.273Z,99.90
2023-05-21T00:26:17.186Z,99.90
2023-05-21T00:28:44.015Z,99.90
2023-05-21T00:31:11.335Z,99.90
2023-05-21T00:33:38.185Z,99.90
2023-05-21T00:36:06.379Z,99.90
2023-05-21T00:38:33.277Z,99.90
2023-05-21T00:41:02.525Z,99.90
2023-05-21T00:43:29.420Z,99.90
2023-05-21T00:45:56.683Z,99.90
2023-05-21T00:48:24.160Z,99.90
2023-05-21T00:50:51.247Z,99.90
2023-05-21T00:53:19.533Z,99.90
2023-05-21T00:55:47.096Z,99.90
2023-05-21T00:58:14.185Z,99.90
2023-05-21T01:00:44.273Z,99.90
2023-05-21T01:03:12.647Z,99.90
2023-05-21T01:05:39.673Z,99.90
2023-05-21T01:08:07.739Z,99.90
2023-05-21T01:10:34.685Z,99.90
2023-05-21T01:13:02.006Z,99.90
2023-05-21T01:15:29.404Z,99.90
2023-05-21T01:17:57.211Z,99.90
2023-05-21T01:20:24.804Z,99.90
2023-05-21T01:22:53.892Z,99.90
2023-05-21T01:25:21.591Z,99.90
2023-05-21T01:27:48.735Z,99.90
2023-05-21T01:30:18.164Z,99.90
2023-05-21T01:32:51.279Z,99.90
2023-05-21T01:35:32.269Z,99.90
2023-05-21T01:38:27.756Z,99.90
2023-05-21T01:41:06.489Z,99.90
2023-05-21T01:43:36.830Z,99.90
2023-05-21T01:46:05.769Z,99.90
2023-05-21T01:48:33.028Z,99.90
2023-05-21T01:51:03.908Z,99.90
2023-05-21T01:53:31.225Z,99.90
2023-05-21T01:55:59.301Z,99.90
2023-05-21T01:58:26.680Z,99.90
2023-05-21T02:00:53.575Z,99.90
2023-05-21T02:03:21.869Z,99.90
2023-05-21T02:05:48.904Z,99.90
2023-05-21T02:08:15.818Z,99.90
2023-05-21T02:10:42.838Z,99.90
2023-05-21T02:13:09.791Z,99.90
2023-05-21T02:15:36.802Z,99.90
2023-05-21T02:18:04.459Z,99.90
2023-05-21T02:20:31.674Z,99.90
2023-05-21T02:22:58.622Z,99.90
2023-05-21T02:25:25.725Z,99.90
2023-05-21T02:27:53.735Z,99.90
2023-05-21T02:30:21.050Z,99.90
2023-05-21T02:32:48.991Z,99.90
2023-05-21T02:35:16.273Z,99.90
2023-05-21T02:37:44.158Z,99.90
2023-05-21T02:40:12.557Z,99.90
2023-05-21T02:42:41.458Z,99.90
2023-05-21T02:45:10.186Z,99.90
2023-05-21T02:47:38.375Z,99.90
2023-05-21T02:50:07.722Z,99.90
2023-05-21T02:52:34.857Z,99.90
2023-05-21T02:55:01.832Z,99.90
2023-05-21T02:57:28.754Z,99.90
2023-05-21T02:59:55.637Z,99.90
2023-05-21T03:02:23.367Z,99.90
2023-05-21T03:04:51.579Z,99.90
2023-05-21T03:07:19.948Z,99.90
2023-05-21T03:09:47.444Z,99.90
2023-05-21T03:12:14.544Z,99.90
2023-05-21T03:14:46.351Z,99.90
2023-05-21T03:17:17.121Z,99.90
2023-05-21T03:19:44.576Z,99.90
2023-05-21T03:22:11.710Z,99.90
2023-05-21T03:24:42.260Z,99.90
2023-05-21T03:27:09.164Z,99.90
2023-05-21T03:29:36.311Z,99.90
2023-05-21T03:32:03.538Z,99.90
2023-05-21T03:34:31.135Z,99.90
2023-05-21T03:36:58.145Z,99.90
2023-05-21T03:39:25.123Z,99.90
2023-05-21T03:41:52.122Z,99.90
2023-05-21T03:44:19.024Z,99.90
2023-05-21T03:46:46.127Z,99.90
2023-05-21T03:49:14.321Z,99.90
2023-05-21T03:51:41.247Z,99.90
2023-05-21T03:54:08.198Z,99.90
2023-05-21T03:56:35.080Z,99.90
2023-05-21T03:59:02.268Z,99.90
2023-05-21T04:01:29.290Z,99.90
2023-05-21T04:03:56.420Z,99.90
2023-05-21T04:06:23.487Z,99.90
2023-05-21T04:08:51.462Z,99.90
2023-05-21T04:11:18.319Z,99.90
2023-05-21T04:13:46.192Z,99.90
2023-05-21T04:16:14.815Z,99.90
2023-05-21T04:18:44.154Z,99.90
2023-05-21T04:21:12.704Z,99.90
2023-05-21T04:23:39.799Z,99.90
2023-05-21T04:26:07.699Z,99.90
2023-05-21T04:28:35.397Z,99.90
2023-05-21T04:31:02.696Z,99.90
2023-05-21T04:33:30.472Z,99.90
2023-05-21T04:35:57.910Z,99.90
2023-05-21T04:38:25.944Z,99.90
2023-05-21T04:40:53.068Z,99.90
2023-05-21T04:43:25.546Z,99.90
2023-05-21T04:45:54.836Z,99.90
2023-05-21T04:48:26.873Z,99.90
2023-05-21T04:50:54.092Z,99.90
2023-05-21T04:53:21.976Z,99.90
2023-05-21T04:55:49.223Z,99.90
2023-05-21T04:58:18.357Z,99.90
2023-05-21T05:00:50.670Z,99.90
2023-05-21T05:03:17.784Z,99.90
2023-05-21T05:05:44.893Z,99.90
2023-05-21T05:08:14.744Z,99.90
2023-05-21T05:10:42.921Z,99.90
2023-05-21T05:13:10.001Z,99.90
2023-05-21T05:15:37.259Z,99.90
2023-05-21T05:18:04.521Z,99.90
2023-05-21T05:20:31.629Z,99.90
2023-05-21T05:22:58.498Z,99.90
2023-05-21T05:25:25.518Z,99.90
2023-05-21T05:27:52.404Z,99.90
2023-05-21T05:30:19.989Z,99.90
2023-05-21T05:32:47.062Z,99.90
2023-05-21T05:35:14.133Z,99.90
2023-05-21T05:37:41.522Z,99.90
2023-05-21T05:40:08.893Z,99.90
2023-05-21T05:42:35.887Z,99.90
2023-05-21T05:45:02.806Z,99.90
2023-05-21T05:47:29.780Z,99.90
2023-05-21T05:49:57.117Z,99.90
2023-05-21T05:52:24.069Z,99.90
2023-05-21T05:54:51.093Z,99.90
2023-05-21T05:57:18.018Z,99.90
2023-05-21T05:59:44.916Z,99.90
2023-05-21T06:02:11.863Z,99.90
2023-05-21T06:04:38.886Z,99.90
2023-05-21T06:07:06.009Z,99.90
2023-05-21T06:09:32.968Z,99.90
2023-05-21T06:11:59.881Z,99.90
2023-05-21T06:14:26.781Z,99.90
2023-05-21T06:16:53.706Z,99.90
2023-05-21T06:19:20.823Z,99.90
2023-05-21T06:21:48.111Z,99.90
2023-05-21T06:24:15.028Z,99.90
2023-05-21T06:26:42.452Z,99.90
2023-05-21T06:29:09.376Z,99.90
2023-05-21T06:31:36.435Z,99.90
2023-05-21T06:34:04.243Z,99.90
2023-05-21T06:36:32.530Z,99.90
2023-05-21T06:38:59.627Z,99.90
2023-05-21T06:41:26.687Z,99.90
2023-05-21T06:43:53.650Z,99.90
2023-05-21T06:46:21.045Z,99.90
2023-05-21T06:48:48.042Z,99.90
2023-05-21T06:51:14.971Z,99.90
2023-05-21T06:53:41.988Z,99.90
2023-05-21T06:56:08.903Z,99.90
2023-05-21T06:58:35.945Z,99.90
2023-05-21T07:01:03.023Z,99.90
2023-05-21T07:03:30.096Z,99.90
2023-05-21T07:05:58.272Z,99.90
2023-05-21T07:08:25.206Z,99.90
2023-05-21T07:10:52.166Z,99.90
2023-05-21T07:13:19.090Z,99.90
2023-05-21T07:15:45.972Z,99.90
2023-05-21T07:18:13.384Z,99.90
2023-05-21T07:20:40.415Z,99.90
2023-05-21T07:23:07.324Z,99.90
2023-05-21T07:25:34.452Z,99.90
2023-05-21T07:28:01.714Z,99.90
2023-05-21T07:30:28.661Z,99.90
2023-05-21T07:32:55.589Z,99.90
2023-05-21T07:35:22.741Z,99.90
2023-05-21T07:37:49.915Z,99.90
2023-05-21T07:40:17.410Z,99.90
2023-05-21T07:42:44.371Z,99.90
2023-05-21T07:45:11.382Z,99.90
2023-05-21T07:47:38.362Z,99.90
2023-05-21T07:50:06.399Z,99.90
2023-05-21T07:52:33.366Z,99.90
2023-05-21T07:55:02.246Z,99.90
2023-05-21T07:57:29.174Z,99.90
2023-05-21T07:59:56.689Z,99.90
2023-05-21T08:02:23.735Z,99.90
2023-05-21T08:04:52.602Z,99.90
2023-05-21T08:07:21.539Z,99.90
2023-05-21T08:09:48.527Z,99.90
2023-05-21T08:12:16.097Z,99.90
2023-05-21T08:14:43.143Z,99.90
2023-05-21T08:17:13.522Z,99.90
2023-05-21T08:19:40.452Z,99.90
2023-05-21T08:22:07.436Z,99.90
2023-05-21T08:24:34.465Z,99.90
2023-05-21T08:27:01.402Z,99.90
2023-05-21T08:29:28.288Z,99.90
2023-05-21T08:31:55.264Z,99.90
2023-05-21T08:34:22.200Z,99.90
2023-05-21T08:36:50.038Z,99.90
2023-05-21T08:39:16.978Z,99.90
2023-05-21T08:41:49.545Z,99.90
2023-05-21T08:44:22.180Z,99.90
2023-05-21T08:46:51.408Z,99.90
2023-05-21T08:49:21.417Z,99.90
2023-05-21T08:51:50.322Z,99.90
2023-05-21T08:54:17.323Z,99.90
2023-05-21T08:56:47.134Z,99.90
2023-05-21T08:59:15.203Z,99.90
2023-05-21T09:01:43.556Z,99.90
2023-05-21T09:06:47.081Z,99.90
2023-05-21T09:09:25.149Z,99.90
2023-05-21T09:11:52.016Z,99.90
2023-05-21T09:14:19.761Z,99.90
2023-05-21T09:16:50.397Z,99.90
2023-05-21T09:19:17.870Z,99.90
2023-05-21T09:21:44.795Z,99.90
2023-05-21T09:24:11.790Z,99.90
2023-05-21T09:26:45.555Z,99.90
2023-05-21T09:29:13.440Z,99.90
2023-05-21T09:31:45.076Z,99.90
2023-05-21T09:34:14.043Z,99.90
2023-05-21T09:36:41.013Z,99.80
2023-05-21T09:39:08.624Z,99.90
2023-05-21T09:41:36.945Z,99.90
2023-05-21T09:44:04.674Z,99.80
2023-05-21T09:46:42.126Z,99.70
2023-05-21T09:49:26.474Z,99.60
2023-05-21T09:51:58.111Z,99.50
2023-05-21T09:54:26.158Z,99.90
2023-05-21T09:56:55.861Z,99.80
2023-05-21T09:59:22.980Z,99.90
2023-05-21T10:01:52.888Z,99.40
2023-05-21T10:04:21.479Z,99.40
2023-05-21T10:06:49.388Z,99.20
2023-05-21T10:09:19.354Z,99.70
2023-05-21T10:11:49.582Z,99.20
2023-05-21T10:14:25.514Z,99.90
2023-05-21T10:16:54.252Z,99.10
2023-05-21T10:19:22.577Z,99.30
2023-05-21T10:21:52.476Z,99.20
2023-05-21T10:24:20.037Z,99.50
2023-05-21T10:26:47.631Z,99.30
2023-05-21T10:29:18.132Z,99.30
2023-05-21T10:31:49.997Z,99.30
2023-05-21T10:34:17.540Z,99.70
2023-05-21T10:36:45.231Z,99.90
2023-05-21T10:39:14.047Z,99.90
2023-05-21T10:41:55.381Z,99.90
2023-05-21T10:44:52.063Z,99.90
2023-05-21T10:47:18.858Z,99.90
2023-05-21T10:50:24.238Z,99.90
2023-05-21T10:53:13.543Z,99.90
2023-05-21T10:56:08.135Z,99.90
2023-05-21T10:59:14.120Z,99.90
2023-05-21T11:01:42.197Z,99.90
2023-05-21T11:04:09.851Z,99.90
2023-05-21T11:06:36.811Z,99.90
2023-05-21T11:09:14.096Z,99.90
2023-05-21T11:11:43.901Z,99.90
2023-05-21T11:14:40.036Z,99.10
2023-05-21T11:17:16.393Z,98.20
2023-05-21T11:19:47.312Z,98.60
2023-05-21T11:22:21.951Z,97.70
2023-05-21T11:24:51.120Z,97.00
2023-05-21T11:27:39.956Z,97.20
2023-05-21T11:30:18.171Z,96.90
2023-05-21T11:33:14.055Z,96.40
2023-05-21T11:35:50.478Z,96.20
2023-05-21T11:38:18.422Z,96.20
2023-05-21T11:40:55.853Z,95.10
2023-05-21T11:43:22.750Z,95.30
2023-05-21T11:45:52.836Z,94.80
2023-05-21T11:48:26.797Z,95.30
2023-05-21T11:50:54.753Z,95.60
2023-05-21T11:53:21.810Z,94.90
2023-05-21T11:55:48.844Z,94.50
2023-05-21T11:58:16.670Z,93.70
2023-05-21T12:00:43.762Z,94.50
2023-05-21T12:03:14.734Z,93.40
2023-05-21T12:05:51.537Z,93.10
2023-05-21T12:08:25.522Z,92.40
2023-05-21T12:11:00.060Z,92.60
2023-05-21T12:13:28.035Z,92.10
2023-05-21T12:15:55.071Z,92.50
2023-05-21T12:18:22.290Z,91.80
2023-05-21T12:20:49.280Z,91.50
2023-05-21T12:23:26.523Z,91.90
2023-05-21T12:25:54.028Z,92.10
2023-05-21T12:28:24.870Z,92.70
2023-05-21T12:30:53.586Z,92.80
2023-05-21T12:33:21.693Z,92.40
2023-05-21T12:35:52.405Z,91.50
2023-05-21T12:38:19.470Z,91.20
2023-05-21T12:40:46.450Z,91.30
2023-05-21T12:43:13.960Z,90.90
2023-05-21T12:45:41.279Z,90.70
2023-05-21T12:48:08.717Z,91.30
2023-05-21T12:50:40.590Z,90.50
2023-05-21T12:53:10.697Z,90.20
2023-05-21T12:55:37.575Z,89.80
2023-05-21T12:58:08.280Z,89.80
2023-05-21T13:00:36.170Z,88.70
2023-05-21T13:03:06.266Z,89.30
2023-05-21T13:05:33.688Z,88.70
2023-05-21T13:08:00.709Z,87.70
2023-05-21T13:10:27.697Z,88.50
2023-05-21T13:12:54.667Z,89.30
2023-05-21T13:15:21.616Z,90.00
2023-05-21T13:17:50.105Z,90.00
2023-05-21T13:20:26.562Z,90.40
2023-05-21T13:22:55.533Z,90.70
2023-05-21T13:25:30.302Z,90.90
2023-05-21T13:27:58.148Z,90.00
2023-05-21T13:30:25.278Z,88.80
2023-05-21T13:32:52.472Z,88.90
2023-05-21T13:35:19.731Z,88.70
2023-05-21T13:37:46.696Z,87.60
2023-05-21T13:40:15.758Z,87.00
2023-05-21T13:42:48.478Z,85.60
2023-05-21T13:45:17.285Z,85.40
2023-05-21T13:47:44.921Z,86.00
2023-05-21T13:50:12.507Z,85.60
2023-05-21T13:52:39.947Z,84.10
2023-05-21T13:55:07.473Z,85.90
2023-05-21T13:57:34.534Z,85.20
2023-05-21T14:00:02.006Z,85.10
2023-05-21T14:02:29.463Z,84.40
2023-05-21T14:04:56.510Z,83.50
2023-05-21T14:07:23.453Z,83.70
2023-05-21T14:09:50.453Z,84.60
2023-05-21T14:12:17.632Z,83.60
2023-05-21T14:14:44.646Z,83.70
2023-05-21T14:17:11.687Z,83.30
2023-05-21T14:19:38.572Z,83.50
2023-05-21T14:22:05.694Z,84.70
2023-05-21T14:24:32.785Z,85.40
2023-05-21T14:26:59.754Z,85.60
2023-05-21T14:29:26.672Z,85.90
2023-05-21T14:31:53.677Z,87.70
2023-05-21T14:34:20.936Z,88.90
2023-05-21T14:36:47.854Z,90.10
2023-05-21T14:39:15.333Z,90.60
2023-05-21T14:41:42.696Z,90.50
2023-05-21T14:44:09.739Z,90.30
2023-05-21T14:46:36.960Z,90.50
2023-05-21T14:49:04.017Z,90.40
2023-05-21T14:51:31.704Z,88.40
2023-05-21T14:53:59.036Z,87.10
2023-05-21T14:56:27.799Z,87.10
2023-05-21T14:58:55.529Z,86.40
2023-05-21T15:01:22.702Z,84.90
2023-05-21T15:03:49.874Z,86.70
2023-05-21T15:06:17.064Z,83.90
2023-05-21T15:08:44.010Z,83.90
2023-05-21T15:11:11.581Z,84.30
2023-05-21T15:13:39.485Z,86.20
2023-05-21T15:16:06.823Z,84.40
2023-05-21T15:18:34.053Z,84.20
2023-05-21T15:21:01.248Z,83.30
2023-05-21T15:23:28.375Z,83.80
2023-05-21T15:25:55.498Z,84.10
2023-05-21T15:28:23.149Z,83.70
2023-05-21T15:30:50.189Z,83.60
2023-05-21T15:33:17.407Z,83.20
2023-05-21T15:35:44.632Z,84.10
2023-05-21T15:38:11.929Z,83.40
2023-05-21T15:40:41.914Z,83.40
2023-05-21T15:43:08.922Z,84.50
2023-05-21T15:45:36.089Z,86.30
2023-05-21T15:48:03.274Z,86.20
2023-05-21T15:50:30.195Z,87.50
2023-05-21T15:52:57.118Z,87.70
2023-05-21T15:55:24.085Z,89.10
2023-05-21T15:57:51.173Z,89.30
2023-05-21T16:00:18.586Z,89.60
2023-05-21T16:02:45.602Z,90.20
2023-05-21T16:05:12.573Z,90.70
2023-05-21T16:07:39.458Z,90.50
2023-05-21T16:10:09.495Z,90.60
2023-05-21T16:12:36.735Z,90.70
2023-05-21T16:15:04.085Z,90.90
2023-05-21T16:17:31.712Z,90.90
2023-05-21T16:19:58.656Z,91.10
2023-05-21T16:22:25.550Z,90.10
2023-05-21T16:24:52.953Z,89.30
2023-05-21T16:27:19.982Z,88.80
2023-05-21T16:29:46.892Z,89.20
2023-05-21T16:32:14.388Z,89.10
2023-05-21T16:34:41.465Z,88.60
2023-05-21T16:37:09.667Z,87.50
2023-05-21T16:39:36.963Z,86.90
2023-05-21T16:42:04.121Z,86.40
2023-05-21T16:44:38.058Z,85.70
2023-05-21T16:47:05.449Z,86.00
2023-05-21T16:49:32.459Z,86.30
2023-05-21T16:51:59.408Z,86.30
2023-05-21T16:54:27.368Z,86.80
2023-05-21T16:56:55.047Z,87.80
2023-05-21T16:59:21.978Z,90.60
2023-05-21T17:01:48.958Z,89.30
2023-05-21T17:04:16.143Z,90.00
2023-05-21T17:06:43.018Z,90.50
2023-05-21T17:09:09.928Z,91.10
2023-05-21T17:11:36.911Z,91.50
2023-05-21T17:14:03.895Z,91.90
2023-05-21T17:16:31.034Z,92.10
2023-05-21T17:18:58.051Z,92.60
2023-05-21T17:21:26.520Z,92.90
2023-05-21T17:23:53.447Z,93.10
2023-05-21T17:26:21.794Z,93.80
2023-05-21T17:28:48.747Z,93.90
2023-05-21T17:31:16.347Z,94.10
2023-05-21T17:33:43.323Z,94.10
2023-05-21T17:36:10.205Z,94.30
2023-05-21T17:38:37.152Z,95.00
2023-05-21T17:41:04.363Z,94.80
2023-05-21T17:43:32.059Z,95.10
2023-05-21T17:45:59.123Z,95.10
2023-05-21T17:48:26.542Z,95.40
2023-05-21T17:50:53.683Z,95.40
2023-05-21T17:53:20.675Z,95.50
2023-05-21T17:55:47.618Z,95.80
2023-05-21T17:58:14.689Z,96.00
2023-05-21T18:00:41.682Z,96.20
2023-05-21T18:03:08.811Z,96.70
2023-05-21T18:05:36.372Z,96.40
2023-05-21T18:08:04.099Z,96.60
2023-05-21T18:10:30.985Z,96.80
2023-05-21T18:12:57.935Z,97.00
2023-05-21T18:15:24.948Z,97.10
2023-05-21T18:17:51.915Z,97.30
2023-05-21T18:20:19.023Z,97.50
2023-05-21T18:22:45.929Z,97.60
2023-05-21T18:25:12.984Z,97.80
2023-05-21T18:27:40.012Z,98.00
2023-05-21T18:30:08.334Z,98.10
2023-05-21T18:32:38.788Z,98.20
2023-05-21T18:35:11.475Z,98.40
2023-05-21T18:37:41.570Z,98.60
2023-05-21T18:40:09.211Z,98.80
2023-05-21T18:42:36.378Z,99.00
2023-05-21T18:45:08.535Z,99.10
2023-05-21T18:47:35.864Z,99.60
2023-05-21T18:50:02.844Z,99.60
2023-05-21T18:52:29.722Z,99.90
2023-05-21T18:54:56.657Z,99.90
2023-05-21T18:57:23.506Z,99.90
2023-05-21T18:59:50.609Z,99.90
2023-05-21T19:02:17.596Z,99.90
2023-05-21T19:04:44.837Z,99.90
2023-05-21T19:07:12.134Z,99.90
2023-05-21T19:09:39.109Z,99.90
2023-05-21T19:12:06.453Z,99.90
2023-05-21T19:14:33.384Z,99.90
2023-05-21T19:17:00.464Z,99.90
2023-05-21T19:19:27.572Z,99.90
2023-05-21T19:21:54.608Z,99.90
2023-05-21T19:24:21.703Z,99.90
2023-05-21T19:26:48.724Z,99.90
2023-05-21T19:29:15.938Z,99.90
2023-05-21T19:31:42.853Z,99.90
2023-05-21T19:34:11.063Z,99.90
2023-05-21T19:36:48.350Z,99.90
2023-05-21T19:39:18.750Z,99.90
2023-05-21T19:41:46.005Z,99.90
2023-05-21T19:44:13.006Z,99.90
2023-05-21T19:46:39.906Z,99.90
2023-05-21T19:49:06.848Z,99.90
2023-05-21T19:51:33.899Z,99.90
2023-05-21T19:54:00.742Z,99.90
2023-05-21T19:56:27.846Z,99.90
2023-05-21T19:58:54.880Z,99.90
2023-05-21T20:01:23.589Z,99.90
2023-05-21T20:03:50.919Z,99.90
2023-05-21T20:06:19.188Z,99.90
2023-05-21T20:08:46.350Z,99.90
2023-05-21T20:11:13.533Z,99.90
2023-05-21T20:13:41.804Z,99.90
2023-05-21T20:16:10.512Z,99.90
2023-05-21T20:18:37.513Z,99.90
2023-05-21T20:21:06.653Z,99.90
2023-05-21T20:23:33.619Z,99.90
2023-05-21T20:26:00.532Z,99.90
2023-05-21T20:28:27.510Z,99.90
2023-05-21T20:30:59.310Z,99.90
2023-05-21T20:33:31.977Z,99.90
2023-05-21T20:35:59.476Z,99.90
2023-05-21T20:38:27.055Z,99.90
2023-05-21T20:40:57.136Z,99.90
2023-05-21T20:43:24.485Z,99.90
2023-05-21T20:45:53.171Z,99.90
2023-05-21T20:48:20.161Z,99.90
2023-05-21T20:50:48.958Z,99.90
2023-05-21T20:53:16.679Z,99.90
2023-05-21T20:55:44.479Z,99.90
2023-05-21T20:58:11.802Z,99.90
2023-05-21T21:00:41.896Z,99.90
2023-05-21T21:03:11.432Z,99.90
2023-05-21T21:05:38.976Z,99.90
2023-05-21T21:08:08.220Z,99.90
2023-05-21T21:10:36.403Z,99.90
2023-05-21T21:13:03.583Z,99.90
2023-05-21T21:15:30.670Z,99.90
2023-05-21T21:17:57.555Z,99.90
2023-05-21T21:20:24.705Z,99.90
2023-05-21T21:22:51.638Z,99.90
2023-05-21T21:25:18.592Z,99.90
2023-05-21T21:27:45.468Z,99.90
2023-05-21T21:30:12.705Z,99.90
2023-05-21T21:32:40.365Z,99.90
2023-05-21T21:35:07.806Z,99.90
2023-05-21T21:37:34.817Z,99.90
2023-05-21T21:40:01.792Z,99.90
2023-05-21T21:42:28.660Z,99.90
2023-05-21T21:44:55.564Z,99.90
2023-05-21T21:47:22.450Z,99.90
2023-05-21T21:49:49.520Z,99.90
2023-05-21T21:52:17.590Z,99.90
2023-05-21T21:54:44.523Z,99.90
2023-05-21T21:57:11.399Z,99.90
2023-05-21T21:59:38.721Z,99.90
2023-05-21T22:02:06.174Z,99.90
2023-05-21T22:04:33.271Z,99.90
2023-05-21T22:07:01.731Z,99.90
2023-05-21T22:09:28.889Z,99.90
2023-05-21T22:11:56.486Z,99.90
2023-05-21T22:14:23.592Z,99.90
2023-05-21T22:16:53.142Z,99.90
2023-05-21T22:19:21.958Z,99.90
2023-05-21T22:21:49.229Z,99.90
2023-05-21T22:24:30.954Z,99.90
2023-05-21T22:26:59.307Z,99.90
2023-05-21T22:29:26.288Z,99.90
2023-05-21T22:31:53.279Z,99.90
2023-05-21T22:34:20.280Z,99.90
2023-05-21T22:36:47.387Z,99.90
2023-05-21T22:39:14.748Z,99.90
2023-05-21T22:41:42.193Z,99.90
2023-05-21T22:44:09.165Z,99.90
2023-05-21T22:46:36.163Z,99.90
2023-05-21T22:49:03.417Z,99.90
2023-05-21T22:51:34.579Z,99.90
2023-05-21T22:54:01.966Z,99.90
2023-05-21T22:56:29.250Z,99.90
2023-05-21T22:58:56.942Z,99.90
2023-05-21T23:01:24.001Z,99.90
2023-05-21T23:03:51.499Z,99.90
2023-05-21T23:06:18.575Z,99.90
2023-05-21T23:08:45.591Z,99.90
2023-05-21T23:11:12.705Z,99.90
2023-05-21T23:13:39.585Z,99.90
2023-05-21T23:16:07.408Z,99.90
2023-05-21T23:18:35.471Z,99.90
2023-05-21T23:21:02.637Z,99.90
2023-05-21T23:23:29.703Z,99.90
2023-05-21T23:25:58.818Z,99.90
2023-05-21T23:28:25.795Z,99.90
2023-05-21T23:30:53.189Z,99.90
2023-05-21T23:33:20.154Z,99.90
2023-05-21T23:35:47.095Z,99.90
2023-05-21T23:38:14.068Z,99.90
2023-05-21T23:40:41.465Z,99.90
2023-05-21T23:43:08.391Z,99.90
2023-05-21T23:45:35.417Z,99.90
2023-05-21T23:48:02.454Z,99.90
2023-05-21T23:50:29.490Z,99.90
2023-05-21T23:52:56.724Z,99.90
2023-05-21T23:55:23.595Z,99.90
2023-05-21T23:57:50.457Z,99.90
